createdAt,value
2017-11-19T00:00:16.913Z,0.00
2017-11-19T00:01:16.872Z,0.00
2017-11-19T00:02:16.868Z,0.00
2017-11-19T00:03:16.872Z,0.00
2017-11-19T00:04:16.848Z,0.00
2017-11-19T00:05:16.842Z,0.00
2017-11-19T00:06:16.832Z,0.00
2017-11-19T00:07:16.835Z,0.00
2017-11-19T00:08:16.827Z,0.00
2017-11-19T00:09:16.833Z,0.00
2017-11-19T00:10:16.811Z,0.00
2017-11-19T00:11:16.804Z,0.00
2017-11-19T00:12:16.802Z,0.00
2017-11-19T00:13:16.796Z,0.00
2017-11-19T00:14:16.803Z,0.00
2017-11-19T00:15:16.788Z,0.00
2017-11-19T00:16:16.774Z,0.00
2017-11-19T00:17:16.769Z,0.00
2017-11-19T00:18:16.760Z,0.00
2017-11-19T00:19:16.756Z,0.00
2017-11-19T00:20:16.754Z,0.00
2017-11-19T00:21:16.752Z,0.00
2017-11-19T00:22:16.740Z,0.00
2017-11-19T00:23:16.732Z,0.00
2017-11-19T00:24:16.727Z,0.00
2017-11-19T00:25:16.724Z,0.00
2017-11-19T00:26:16.713Z,0.00
2017-11-19T00:27:16.705Z,0.00
2017-11-19T00:28:16.700Z,0.00
2017-11-19T00:29:16.690Z,0.00
2017-11-19T00:30:16.701Z,0.00
2017-11-19T00:31:16.675Z,0.00
2017-11-19T00:32:16.678Z,0.00
2017-11-19T00:33:16.683Z,0.00
2017-11-19T00:34:16.663Z,0.00
2017-11-19T00:35:16.661Z,0.00
2017-11-19T00:36:16.649Z,0.00
2017-11-19T00:37:16.642Z,0.00
2017-11-19T00:38:16.635Z,0.00
2017-11-19T00:39:16.632Z,0.00
2017-11-19T00:40:16.626Z,0.00
2017-11-19T00:41:16.615Z,0.00
2017-11-19T00:42:16.615Z,0.00
2017-11-19T00:43:16.610Z,0.00
2017-11-19T00:44:16.598Z,0.00
2017-11-19T00:45:16.592Z,0.00
2017-11-19T00:46:16.584Z,0.00
2017-11-19T00:47:16.572Z,0.00
2017-11-19T00:48:16.574Z,0.00
2017-11-19T00:49:16.565Z,0.00
2017-11-19T00:50:16.565Z,0.00
2017-11-19T00:51:16.553Z,0.00
2017-11-19T00:52:16.549Z,0.00
2017-11-19T00:53:16.556Z,0.00
2017-11-19T00:54:16.535Z,0.00
2017-11-19T00:55:16.525Z,0.00
2017-11-19T00:56:16.524Z,0.00
2017-11-19T00:57:16.517Z,0.00
2017-11-19T00:58:16.508Z,0.00
2017-11-19T00:59:16.503Z,0.00
2017-11-19T01:00:16.498Z,0.00
2017-11-19T01:01:16.490Z,0.00
2017-11-19T01:02:16.485Z,0.00
2017-11-19T01:03:16.474Z,0.00
2017-11-19T01:04:16.467Z,0.00
2017-11-19T01:05:16.465Z,0.00
2017-11-19T01:06:16.459Z,0.00
2017-11-19T01:07:16.453Z,0.00
2017-11-19T01:08:16.452Z,0.00
2017-11-19T01:09:16.439Z,0.00
2017-11-19T01:10:16.433Z,0.00
2017-11-19T01:11:16.426Z,0.00
2017-11-19T01:12:16.421Z,0.00
2017-11-19T01:13:16.416Z,0.00
2017-11-19T01:14:16.408Z,0.00
2017-11-19T01:15:16.405Z,0.00
2017-11-19T01:16:16.395Z,0.00
2017-11-19T01:17:16.389Z,0.00
2017-11-19T01:18:16.380Z,0.00
2017-11-19T01:19:16.408Z,0.00
2017-11-19T01:20:16.382Z,0.00
2017-11-19T01:21:16.364Z,0.00
2017-11-19T01:22:16.358Z,0.00
2017-11-19T01:23:16.354Z,0.00
2017-11-19T01:24:16.347Z,0.00
2017-11-19T01:25:16.339Z,0.00
2017-11-19T01:26:16.332Z,0.00
2017-11-19T01:27:16.327Z,0.00
2017-11-19T01:28:16.323Z,0.00
2017-11-19T01:29:16.315Z,0.00
2017-11-19T01:30:16.350Z,0.00
2017-11-19T01:31:16.303Z,0.00
2017-11-19T01:32:16.297Z,0.00
2017-11-19T01:33:16.289Z,0.00
2017-11-19T01:34:16.285Z,0.00
2017-11-19T01:35:16.280Z,0.00
2017-11-19T01:36:16.271Z,0.00
2017-11-19T01:37:16.266Z,0.00
2017-11-19T01:38:16.260Z,0.00
2017-11-19T01:39:16.353Z,0.00
2017-11-19T01:40:16.249Z,0.00
2017-11-19T01:41:16.241Z,0.00
2017-11-19T01:42:16.235Z,0.00
2017-11-19T01:43:16.227Z,0.00
2017-11-19T01:44:16.222Z,0.00
2017-11-19T01:45:16.216Z,0.00
2017-11-19T01:46:16.212Z,0.00
2017-11-19T01:47:16.216Z,0.00
2017-11-19T01:48:16.197Z,0.00
2017-11-19T01:49:16.195Z,0.00
2017-11-19T01:50:16.198Z,0.00
2017-11-19T01:51:16.253Z,0.00
2017-11-19T01:52:16.172Z,0.00
2017-11-19T01:53:16.166Z,0.00
2017-11-19T01:54:16.158Z,0.00
2017-11-19T01:55:16.155Z,0.00
2017-11-19T01:56:16.148Z,0.00
2017-11-19T01:57:16.142Z,0.00
2017-11-19T01:58:16.140Z,0.00
2017-11-19T01:59:16.128Z,0.00
2017-11-19T02:00:16.167Z,0.00
2017-11-19T02:01:16.117Z,0.00
2017-11-19T02:02:16.109Z,0.00
2017-11-19T02:03:16.103Z,0.00
2017-11-19T02:04:16.105Z,0.00
2017-11-19T02:05:16.090Z,0.00
2017-11-19T02:06:16.084Z,0.00
2017-11-19T02:07:16.072Z,0.00
2017-11-19T02:08:16.071Z,0.00
2017-11-19T02:09:16.067Z,0.00
2017-11-19T02:10:16.056Z,0.00
2017-11-19T02:11:16.053Z,0.00
2017-11-19T02:12:16.046Z,0.00
2017-11-19T02:13:16.039Z,0.00
2017-11-19T02:14:16.032Z,0.00
2017-11-19T02:15:16.027Z,0.00
2017-11-19T02:16:16.026Z,0.00
2017-11-19T02:17:16.027Z,0.00
2017-11-19T02:18:16.006Z,0.00
2017-11-19T02:19:16.002Z,0.00
2017-11-19T02:20:15.995Z,0.00
2017-11-19T02:21:15.992Z,0.00
2017-11-19T02:22:15.981Z,0.00
2017-11-19T02:23:15.978Z,0.00
2017-11-19T02:24:15.968Z,0.00
2017-11-19T02:25:15.963Z,0.00
2017-11-19T02:26:15.955Z,0.00
2017-11-19T02:27:15.948Z,0.00
2017-11-19T02:28:15.942Z,0.00
2017-11-19T02:29:15.935Z,0.00
2017-11-19T02:30:15.942Z,0.00
2017-11-19T02:31:15.945Z,0.00
2017-11-19T02:32:15.922Z,0.00
2017-11-19T02:33:15.928Z,0.00
2017-11-19T02:34:15.902Z,0.00
2017-11-19T02:35:15.895Z,0.00
2017-11-19T02:36:15.889Z,0.00
2017-11-19T02:37:15.890Z,0.00
2017-11-19T02:38:15.871Z,0.00
2017-11-19T02:39:15.870Z,0.00
2017-11-19T02:40:15.863Z,0.00
2017-11-19T02:41:15.857Z,0.00
2017-11-19T02:42:15.852Z,0.00
2017-11-19T02:43:15.841Z,0.00
2017-11-19T02:44:15.834Z,0.00
2017-11-19T02:45:15.841Z,0.00
2017-11-19T02:46:15.829Z,0.00
2017-11-19T02:47:15.813Z,0.00
2017-11-19T02:48:15.812Z,0.00
2017-11-19T02:49:15.810Z,0.00
2017-11-19T02:50:15.797Z,0.00
2017-11-19T02:51:15.794Z,0.00
2017-11-19T02:52:15.779Z,0.00
2017-11-19T02:53:15.774Z,0.00
2017-11-19T02:54:15.772Z,0.00
2017-11-19T02:55:15.766Z,0.00
2017-11-19T02:56:15.754Z,0.00
2017-11-19T02:57:15.749Z,0.00
2017-11-19T02:58:15.738Z,0.00
2017-11-19T02:59:15.743Z,0.00
2017-11-19T03:00:15.731Z,0.00
2017-11-19T03:01:15.722Z,0.00
2017-11-19T03:02:15.716Z,0.00
2017-11-19T03:03:15.708Z,0.00
2017-11-19T03:04:15.702Z,0.00
2017-11-19T03:05:15.692Z,0.00
2017-11-19T03:06:15.686Z,0.00
2017-11-19T03:07:15.686Z,0.00
2017-11-19T03:08:15.672Z,0.00
2017-11-19T03:09:15.665Z,0.00
2017-11-19T03:10:15.658Z,0.00
2017-11-19T03:11:15.652Z,0.00
2017-11-19T03:12:15.641Z,0.00
2017-11-19T03:13:15.636Z,0.00
2017-11-19T03:14:15.632Z,0.00
2017-11-19T03:15:15.621Z,0.00
2017-11-19T03:16:15.616Z,0.00
2017-11-19T03:17:15.608Z,0.00
2017-11-19T03:18:15.602Z,0.00
2017-11-19T03:19:15.592Z,0.00
2017-11-19T03:20:15.590Z,0.00
2017-11-19T03:21:15.579Z,0.00
2017-11-19T03:22:15.570Z,0.00
2017-11-19T03:23:15.565Z,0.00
2017-11-19T03:24:15.558Z,0.00
2017-11-19T03:25:15.550Z,0.00
2017-11-19T03:26:15.547Z,0.00
2017-11-19T03:27:15.556Z,0.00
2017-11-19T03:28:15.529Z,0.00
2017-11-19T03:29:15.522Z,0.00
2017-11-19T03:30:15.524Z,0.00
2017-11-19T03:31:15.508Z,0.00
2017-11-19T03:32:15.504Z,0.00
2017-11-19T03:33:15.490Z,0.00
2017-11-19T03:34:15.488Z,0.00
2017-11-19T03:35:15.478Z,0.00
2017-11-19T03:36:15.475Z,0.00
2017-11-19T03:37:15.462Z,0.00
2017-11-19T03:38:15.459Z,0.00
2017-11-19T03:39:15.448Z,0.00
2017-11-19T03:40:15.442Z,0.00
2017-11-19T03:41:15.433Z,0.00
2017-11-19T03:42:15.431Z,0.00
2017-11-19T03:43:15.418Z,0.00
2017-11-19T03:44:15.416Z,0.00
2017-11-19T03:45:15.405Z,0.00
2017-11-19T03:46:15.402Z,0.00
2017-11-19T03:47:15.396Z,0.00
2017-11-19T03:48:15.392Z,0.00
2017-11-19T03:49:15.373Z,0.00
2017-11-19T03:50:15.367Z,0.00
2017-11-19T03:51:15.352Z,0.00
2017-11-19T03:52:15.355Z,0.00
2017-11-19T03:53:15.343Z,0.00
2017-11-19T03:54:15.338Z,0.00
2017-11-19T03:55:15.338Z,0.00
2017-11-19T03:56:15.321Z,0.00
2017-11-19T03:57:15.319Z,0.00
2017-11-19T03:58:15.307Z,0.00
2017-11-19T03:59:15.297Z,0.00
2017-11-19T04:00:15.295Z,0.00
2017-11-19T04:01:15.287Z,0.00
2017-11-19T04:02:15.280Z,0.00
2017-11-19T04:03:15.305Z,0.00
2017-11-19T04:04:15.296Z,0.00
2017-11-19T04:05:15.252Z,0.00
2017-11-19T04:06:15.248Z,0.00
2017-11-19T04:07:15.251Z,0.00
2017-11-19T04:08:15.233Z,0.00
2017-11-19T04:09:15.224Z,0.00
2017-11-19T04:10:15.224Z,0.00
2017-11-19T04:11:15.211Z,0.00
2017-11-19T04:12:15.200Z,0.00
2017-11-19T04:13:15.193Z,0.00
2017-11-19T04:14:15.189Z,0.00
2017-11-19T04:15:15.178Z,0.00
2017-11-19T04:16:15.187Z,0.00
2017-11-19T04:17:15.181Z,0.00
2017-11-19T04:18:15.157Z,0.00
2017-11-19T04:19:15.150Z,0.00
2017-11-19T04:20:15.140Z,0.00
2017-11-19T04:21:15.145Z,0.00
2017-11-19T04:22:15.132Z,0.00
2017-11-19T04:23:15.116Z,0.00
2017-11-19T04:24:15.108Z,0.00
2017-11-19T04:25:15.102Z,0.00
2017-11-19T04:26:15.095Z,0.00
2017-11-19T04:27:15.090Z,0.00
2017-11-19T04:28:15.080Z,0.00
2017-11-19T04:29:15.072Z,0.00
2017-11-19T04:30:15.064Z,0.00
2017-11-19T04:31:15.053Z,0.00
2017-11-19T04:32:15.049Z,0.00
2017-11-19T04:33:15.041Z,0.00
2017-11-19T04:34:15.031Z,0.00
2017-11-19T04:35:15.026Z,0.00
2017-11-19T04:36:15.017Z,0.00
2017-11-19T04:37:15.008Z,0.00
2017-11-19T04:38:15.017Z,0.00
2017-11-19T04:39:14.996Z,0.00
2017-11-19T04:40:14.985Z,0.00
2017-11-19T04:41:14.983Z,0.00
2017-11-19T04:42:14.972Z,0.00
2017-11-19T04:43:14.957Z,0.00
2017-11-19T04:44:14.961Z,0.00
2017-11-19T04:45:14.957Z,0.00
2017-11-19T04:46:14.944Z,0.00
2017-11-19T04:47:14.942Z,0.00
2017-11-19T04:48:14.924Z,0.00
2017-11-19T04:49:14.919Z,0.00
2017-11-19T04:50:14.911Z,0.00
2017-11-19T04:51:14.905Z,0.00
2017-11-19T04:52:14.899Z,0.00
2017-11-19T04:53:14.891Z,0.00
2017-11-19T04:54:14.880Z,0.00
2017-11-19T04:55:14.874Z,0.00
2017-11-19T04:56:14.870Z,0.00
2017-11-19T04:57:14.877Z,0.00
2017-11-19T04:58:14.849Z,0.00
2017-11-19T04:59:14.841Z,0.00
2017-11-19T05:00:14.839Z,0.00
2017-11-19T05:01:14.867Z,0.00
2017-11-19T05:02:14.820Z,0.00
2017-11-19T05:03:14.813Z,0.00
2017-11-19T05:04:14.817Z,0.00
2017-11-19T05:05:14.803Z,0.00
2017-11-19T05:06:14.793Z,0.00
2017-11-19T05:07:14.791Z,0.00
2017-11-19T05:08:14.776Z,0.00
2017-11-19T05:09:14.770Z,0.00
2017-11-19T05:10:14.763Z,0.00
2017-11-19T05:11:14.764Z,0.00
2017-11-19T05:12:14.743Z,0.00
2017-11-19T05:13:14.746Z,0.00
2017-11-19T05:14:14.733Z,0.00
2017-11-19T05:15:14.733Z,0.00
2017-11-19T05:16:14.720Z,0.00
2017-11-19T05:17:14.715Z,0.00
2017-11-19T05:18:14.707Z,0.00
2017-11-19T05:19:14.692Z,0.00
2017-11-19T05:20:14.691Z,0.00
2017-11-19T05:21:14.685Z,0.00
2017-11-19T05:22:14.676Z,0.00
2017-11-19T05:23:14.668Z,0.00
2017-11-19T05:24:14.661Z,0.00
2017-11-19T05:25:14.655Z,0.00
2017-11-19T05:26:14.646Z,0.00
2017-11-19T05:27:14.639Z,0.00
2017-11-19T05:28:14.635Z,0.00
2017-11-19T05:29:14.625Z,0.00
2017-11-19T05:30:14.615Z,0.00
2017-11-19T05:31:14.609Z,0.00
2017-11-19T05:32:14.604Z,0.00
2017-11-19T05:33:14.596Z,0.00
2017-11-19T05:34:14.587Z,0.00
2017-11-19T05:35:14.582Z,0.00
2017-11-19T05:36:14.581Z,0.00
2017-11-19T05:37:14.563Z,0.00
2017-11-19T05:38:14.557Z,0.00
2017-11-19T05:39:14.550Z,0.00
2017-11-19T05:40:14.551Z,0.00
2017-11-19T05:41:14.534Z,0.00
2017-11-19T05:42:14.533Z,0.00
2017-11-19T05:43:14.519Z,0.00
2017-11-19T05:44:14.513Z,0.00
2017-11-19T05:45:14.506Z,0.00
2017-11-19T05:46:14.497Z,0.00
2017-11-19T05:47:14.489Z,0.00
2017-11-19T05:48:14.481Z,0.00
2017-11-19T05:49:14.479Z,0.00
2017-11-19T05:50:14.476Z,0.00
2017-11-19T05:51:14.464Z,0.00
2017-11-19T05:52:14.454Z,0.00
2017-11-19T05:53:14.445Z,0.00
2017-11-19T05:54:14.438Z,0.00
2017-11-19T05:55:14.428Z,0.00
2017-11-19T05:56:14.421Z,0.00
2017-11-19T05:57:14.417Z,0.00
2017-11-19T05:58:14.409Z,0.00
2017-11-19T05:59:14.400Z,0.00
2017-11-19T06:00:14.392Z,0.00
2017-11-19T06:01:14.388Z,4.00
2017-11-19T06:02:14.378Z,4.00
2017-11-19T06:03:14.369Z,0.00
2017-11-19T06:04:14.366Z,0.00
2017-11-19T06:05:14.427Z,4.00
2017-11-19T06:06:14.354Z,4.00
2017-11-19T06:07:14.341Z,4.00
2017-11-19T06:08:14.338Z,8.00
2017-11-19T06:09:14.323Z,8.00
2017-11-19T06:10:14.324Z,8.00
2017-11-19T06:11:14.319Z,12.00
2017-11-19T06:12:14.312Z,12.00
2017-11-19T06:13:14.299Z,12.00
2017-11-19T06:14:14.297Z,16.00
2017-11-19T06:15:14.288Z,20.00
2017-11-19T06:16:14.281Z,20.00
2017-11-19T06:17:14.277Z,24.00
2017-11-19T06:18:14.266Z,28.00
2017-11-19T06:19:14.256Z,36.00
2017-11-19T06:20:14.250Z,36.00
2017-11-19T06:21:14.246Z,44.00
2017-11-19T06:22:14.238Z,48.00
2017-11-19T06:23:14.229Z,60.00
2017-11-19T06:24:14.219Z,64.00
2017-11-19T06:25:14.230Z,72.00
2017-11-19T06:26:14.204Z,80.00
2017-11-19T06:27:14.197Z,92.00
2017-11-19T06:28:14.190Z,96.00
2017-11-19T06:29:14.183Z,108.00
2017-11-19T06:30:14.175Z,128.00
2017-11-19T06:31:14.177Z,140.00
2017-11-19T06:32:14.163Z,152.00
2017-11-19T06:33:14.155Z,168.00
2017-11-19T06:34:14.162Z,188.00
2017-11-19T06:35:14.140Z,200.00
2017-11-19T06:36:14.137Z,212.00
2017-11-19T06:37:14.124Z,232.00
2017-11-19T06:38:14.118Z,256.00
2017-11-19T06:39:14.111Z,272.00
2017-11-19T06:40:14.110Z,292.00
2017-11-19T06:41:14.101Z,304.00
2017-11-19T06:42:14.091Z,312.00
2017-11-19T06:43:14.083Z,320.00
2017-11-19T06:44:14.084Z,320.00
2017-11-19T06:45:14.066Z,324.00
2017-11-19T06:46:14.064Z,340.00
2017-11-19T06:47:14.063Z,360.00
2017-11-19T06:48:14.073Z,352.00
2017-11-19T06:49:14.039Z,312.00
2017-11-19T06:50:14.042Z,336.00
2017-11-19T06:51:14.029Z,364.00
2017-11-19T06:52:14.026Z,360.00
2017-11-19T06:53:14.005Z,404.00
2017-11-19T06:54:14.007Z,444.00
2017-11-19T06:55:13.997Z,500.00
2017-11-19T06:56:13.988Z,556.00
2017-11-19T06:57:13.984Z,580.00
2017-11-19T06:58:13.976Z,588.00
2017-11-19T06:59:13.963Z,628.00
2017-11-19T07:00:13.964Z,664.00
2017-11-19T07:01:13.965Z,696.00
2017-11-19T07:02:13.947Z,724.00
2017-11-19T07:03:13.938Z,772.00
2017-11-19T07:04:13.932Z,772.00
2017-11-19T07:05:13.925Z,808.00
2017-11-19T07:06:13.918Z,780.00
2017-11-19T07:07:13.911Z,780.00
2017-11-19T07:08:13.902Z,832.00
2017-11-19T07:09:13.897Z,872.00
2017-11-19T07:10:13.896Z,880.00
2017-11-19T07:11:13.883Z,944.00
2017-11-19T07:12:13.884Z,952.00
2017-11-19T07:13:13.874Z,920.00
2017-11-19T07:14:13.857Z,1028.00
2017-11-19T07:15:13.854Z,1008.00
2017-11-19T07:16:13.857Z,1012.00
2017-11-19T07:17:13.840Z,1064.00
2017-11-19T07:18:13.838Z,1128.00
2017-11-19T07:19:13.826Z,1156.00
2017-11-19T07:20:13.854Z,1196.00
2017-11-19T07:21:13.847Z,1204.00
2017-11-19T07:22:13.804Z,1216.00
2017-11-19T07:23:13.840Z,1220.00
2017-11-19T07:24:13.818Z,1200.00
2017-11-19T07:25:13.894Z,1336.00
2017-11-19T07:26:13.778Z,1360.00
2017-11-19T07:27:13.779Z,1312.00
2017-11-19T07:28:13.774Z,1396.00
2017-11-19T07:29:13.756Z,1424.00
2017-11-19T07:30:13.768Z,1468.00
2017-11-19T07:31:13.747Z,1604.00
2017-11-19T07:32:13.729Z,1564.00
2017-11-19T07:33:13.748Z,1520.00
2017-11-19T07:34:13.720Z,1640.00
2017-11-19T07:35:13.721Z,1680.00
2017-11-19T07:36:13.719Z,1640.00
2017-11-19T07:37:13.717Z,1596.00
2017-11-19T07:38:13.693Z,1576.00
2017-11-19T07:39:13.689Z,1420.00
2017-11-19T07:40:13.675Z,1184.00
2017-11-19T07:41:13.676Z,1120.00
2017-11-19T07:42:13.664Z,1088.00
2017-11-19T07:43:13.656Z,1064.00
2017-11-19T07:44:13.659Z,1148.00
2017-11-19T07:45:13.654Z,1260.00
2017-11-19T07:46:13.636Z,1412.00
2017-11-19T07:47:13.631Z,1632.00
2017-11-19T07:48:13.625Z,1984.00
2017-11-19T07:49:13.618Z,2384.00
2017-11-19T07:50:13.606Z,2732.00
2017-11-19T07:51:13.613Z,3132.00
2017-11-19T07:52:13.776Z,2604.00
2017-11-19T07:53:13.627Z,2552.00
2017-11-19T07:54:13.588Z,2316.00
2017-11-19T07:55:13.599Z,2176.00
2017-11-19T07:56:13.573Z,2272.00
2017-11-19T07:57:13.564Z,2164.00
2017-11-19T07:58:13.579Z,2100.00
2017-11-19T07:59:13.570Z,2164.00
2017-11-19T08:00:13.578Z,2088.00
2017-11-19T08:01:13.539Z,2000.00
2017-11-19T08:02:13.544Z,2324.00
2017-11-19T08:03:13.527Z,2620.00
2017-11-19T08:04:13.522Z,2652.00
2017-11-19T08:05:13.530Z,2904.00
2017-11-19T08:06:13.509Z,2840.00
2017-11-19T08:07:13.511Z,2460.00
2017-11-19T08:08:13.541Z,2444.00
2017-11-19T08:09:13.588Z,2688.00
2017-11-19T08:10:13.483Z,2564.00
2017-11-19T08:11:13.477Z,2516.00
2017-11-19T08:12:13.468Z,2140.00
2017-11-19T08:13:13.459Z,1788.00
2017-11-19T08:14:13.452Z,1548.00
2017-11-19T08:15:13.458Z,1456.00
2017-11-19T08:16:13.440Z,1792.00
2017-11-19T08:17:13.434Z,2044.00
2017-11-19T08:18:13.429Z,2264.00
2017-11-19T08:19:13.435Z,2444.00
2017-11-19T08:20:13.433Z,2204.00
2017-11-19T08:21:13.413Z,1876.00
2017-11-19T08:22:13.425Z,1684.00
2017-11-19T08:23:13.401Z,1840.00
2017-11-19T08:24:13.422Z,2068.00
2017-11-19T08:25:13.407Z,2176.00
2017-11-19T08:26:13.393Z,2216.00
2017-11-19T08:27:13.387Z,2612.00
2017-11-19T08:28:13.365Z,2700.00
2017-11-19T08:29:13.377Z,2204.00
2017-11-19T08:30:13.360Z,2044.00
2017-11-19T08:31:13.372Z,2240.00
2017-11-19T08:32:13.346Z,2160.00
2017-11-19T08:33:13.352Z,2056.00
2017-11-19T08:34:13.325Z,2240.00
2017-11-19T08:35:13.342Z,2864.00
2017-11-19T08:36:13.314Z,3356.00
2017-11-19T08:37:13.311Z,3760.00
2017-11-19T08:38:13.304Z,3852.00
2017-11-19T08:39:13.299Z,4080.00
2017-11-19T08:40:13.290Z,4776.00
2017-11-19T08:41:13.284Z,5072.00
2017-11-19T08:42:13.292Z,5908.00
2017-11-19T08:43:13.277Z,5220.00
2017-11-19T08:44:13.278Z,4668.00
2017-11-19T08:45:13.279Z,4520.00
2017-11-19T08:46:13.274Z,4824.00
2017-11-19T08:47:13.284Z,4604.00
2017-11-19T08:48:13.235Z,4536.00
2017-11-19T08:49:13.237Z,4700.00
2017-11-19T08:50:13.233Z,4644.00
2017-11-19T08:51:13.228Z,4280.00
2017-11-19T08:52:13.223Z,4312.00
2017-11-19T08:53:13.254Z,3216.00
2017-11-19T08:54:13.227Z,3520.00
2017-11-19T08:55:13.202Z,3872.00
2017-11-19T08:56:13.206Z,3920.00
2017-11-19T08:57:13.190Z,3716.00
2017-11-19T08:58:13.202Z,4320.00
2017-11-19T08:59:13.197Z,4280.00
2017-11-19T09:00:13.182Z,3216.00
2017-11-19T09:01:13.183Z,3268.00
2017-11-19T09:02:13.181Z,3576.00
2017-11-19T09:03:13.153Z,4136.00
2017-11-19T09:04:13.145Z,3688.00
2017-11-19T09:05:13.144Z,3624.00
2017-11-19T09:06:13.146Z,3400.00
2017-11-19T09:07:13.135Z,2992.00
2017-11-19T09:08:13.128Z,2916.00
2017-11-19T09:09:13.139Z,2744.00
2017-11-19T09:10:13.116Z,2332.00
2017-11-19T09:11:13.113Z,1976.00
2017-11-19T09:12:13.141Z,2128.00
2017-11-19T09:13:13.102Z,2356.00
2017-11-19T09:14:13.091Z,3176.00
2017-11-19T09:15:13.085Z,4148.00
2017-11-19T09:16:13.086Z,5084.00
2017-11-19T09:17:13.081Z,6152.00
2017-11-19T09:18:13.082Z,6456.00
2017-11-19T09:19:13.117Z,5548.00
2017-11-19T09:20:13.082Z,5208.00
2017-11-19T09:21:13.081Z,4784.00
2017-11-19T09:22:13.075Z,4520.00
2017-11-19T09:23:13.058Z,4340.00
2017-11-19T09:24:13.060Z,4684.00
2017-11-19T09:25:13.055Z,4552.00
2017-11-19T09:26:13.035Z,5072.00
2017-11-19T09:27:13.075Z,4580.00
2017-11-19T09:28:13.012Z,4276.00
2017-11-19T09:29:13.013Z,3724.00
2017-11-19T09:30:13.007Z,3160.00
2017-11-19T09:31:12.997Z,2904.00
2017-11-19T09:32:13.009Z,2356.00
2017-11-19T09:33:12.993Z,2168.00
2017-11-19T09:34:13.073Z,2168.00
2017-11-19T09:35:12.976Z,2152.00
2017-11-19T09:36:12.975Z,2044.00
2017-11-19T09:37:12.962Z,1840.00
2017-11-19T09:38:12.965Z,1848.00
2017-11-19T09:39:12.949Z,1976.00
2017-11-19T09:40:12.963Z,2096.00
2017-11-19T09:41:12.962Z,2268.00
2017-11-19T09:42:12.952Z,2224.00
2017-11-19T09:43:12.934Z,2080.00
2017-11-19T09:44:12.954Z,1996.00
2017-11-19T09:45:12.918Z,1908.00
2017-11-19T09:46:12.971Z,1848.00
2017-11-19T09:47:12.992Z,2060.00
2017-11-19T09:48:12.981Z,2632.00
2017-11-19T09:49:12.946Z,2616.00
2017-11-19T09:50:12.978Z,2700.00
2017-11-19T09:51:12.905Z,2964.00
2017-11-19T09:52:12.921Z,2548.00
2017-11-19T09:53:12.887Z,2128.00
2017-11-19T09:54:12.874Z,2588.00
2017-11-19T09:55:12.963Z,2696.00
2017-11-19T09:56:12.861Z,3060.00
2017-11-19T09:57:12.863Z,3576.00
2017-11-19T09:58:12.847Z,5352.00
2017-11-19T09:59:21.552Z,4792.00
2017-11-19T10:01:06.284Z,5480.00
2017-11-19T10:02:07.082Z,4292.00
2017-11-19T10:04:11.314Z,3516.00
2017-11-19T10:05:12.231Z,3004.00
2017-11-19T10:07:04.672Z,3088.00
2017-11-19T10:08:04.648Z,3080.00
2017-11-19T10:09:59.077Z,3568.00
2017-11-19T10:10:59.022Z,4412.00
2017-11-19T10:12:52.505Z,4068.00
2017-11-19T10:13:52.495Z,5184.00
2017-11-19T10:15:46.816Z,5148.00
2017-11-19T10:16:46.802Z,4764.00
2017-11-19T10:18:41.186Z,3660.00
2017-11-19T10:19:41.163Z,3228.00
2017-11-19T10:21:35.594Z,3720.00
2017-11-19T10:22:35.572Z,4540.00
2017-11-19T10:24:29.266Z,3772.00
2017-11-19T10:25:29.994Z,4252.00
2017-11-19T10:27:23.624Z,3832.00
2017-11-19T10:28:23.590Z,4212.00
2017-11-19T10:30:17.191Z,4704.00
2017-11-19T10:31:16.988Z,4624.00
2017-11-19T10:33:11.999Z,3780.00
2017-11-19T10:34:11.393Z,3864.00
2017-11-19T10:36:04.974Z,4896.00
2017-11-19T10:37:04.945Z,4436.00
2017-11-19T10:38:58.347Z,4996.00
2017-11-19T10:39:58.321Z,5088.00
2017-11-19T10:41:53.223Z,5084.00
2017-11-19T10:42:53.084Z,3440.00
2017-11-19T10:44:54.776Z,4672.00
2017-11-19T10:45:54.444Z,5100.00
2017-11-19T10:46:54.441Z,5544.00
2017-11-19T10:47:54.462Z,5840.00
2017-11-19T10:48:54.477Z,4520.00
2017-11-19T10:49:54.422Z,5388.00
2017-11-19T10:50:54.426Z,3948.00
2017-11-19T10:51:54.425Z,4140.00
2017-11-19T10:52:54.547Z,4164.00
2017-11-19T10:53:54.404Z,6364.00
2017-11-19T10:54:54.400Z,5264.00
2017-11-19T10:55:54.481Z,5860.00
2017-11-19T10:56:54.401Z,5320.00
2017-11-19T10:57:54.387Z,3868.00
2017-11-19T10:58:54.490Z,4224.00
2017-11-19T10:59:54.473Z,4396.00
2017-11-19T11:00:54.403Z,5392.00
2017-11-19T11:01:54.373Z,4484.00
2017-11-19T11:02:54.374Z,3368.00
2017-11-19T11:03:56.266Z,3616.00
2017-11-19T11:04:54.350Z,3172.00
2017-11-19T11:05:54.388Z,3196.00
2017-11-19T11:06:56.018Z,3456.00
2017-11-19T11:07:54.361Z,4644.00
2017-11-19T11:08:56.064Z,3988.00
2017-11-19T11:09:54.331Z,3504.00
2017-11-19T11:10:54.329Z,3992.00
2017-11-19T11:11:54.319Z,3864.00
2017-11-19T11:12:54.309Z,3408.00
2017-11-19T11:13:54.354Z,3684.00
2017-11-19T11:14:54.313Z,4640.00
2017-11-19T11:15:54.307Z,4016.00
2017-11-19T11:16:54.293Z,2632.00
2017-11-19T11:17:54.684Z,2152.00
2017-11-19T11:18:54.286Z,2228.00
2017-11-19T11:19:54.296Z,2000.00
2017-11-19T11:20:54.282Z,1688.00
2017-11-19T11:21:54.623Z,1500.00
2017-11-19T11:22:54.578Z,1712.00
2017-11-19T11:23:54.318Z,1676.00
2017-11-19T11:24:54.264Z,1908.00
2017-11-19T11:25:54.259Z,2556.00
2017-11-19T11:26:56.056Z,2836.00
2017-11-19T11:27:56.031Z,2256.00
2017-11-19T11:28:54.235Z,2488.00
2017-11-19T11:29:54.227Z,2948.00
2017-11-19T11:30:54.220Z,3516.00
2017-11-19T11:31:54.243Z,5132.00
2017-11-19T11:32:54.215Z,5328.00
2017-11-19T11:33:54.209Z,5244.00
2017-11-19T11:34:54.241Z,4816.00
2017-11-19T11:35:55.323Z,5076.00
2017-11-19T11:36:54.220Z,4600.00
2017-11-19T11:37:54.196Z,4488.00
2017-11-19T11:38:54.193Z,5304.00
2017-11-19T11:39:54.180Z,5116.00
2017-11-19T11:40:54.224Z,5516.00
2017-11-19T11:41:54.179Z,5392.00
2017-11-19T11:42:54.169Z,5960.00
2017-11-19T11:43:54.181Z,6228.00
2017-11-19T11:44:57.035Z,5644.00
2017-11-19T11:45:54.151Z,5892.00
2017-11-19T11:46:54.142Z,6148.00
2017-11-19T11:47:54.144Z,5308.00
2017-11-19T11:48:54.145Z,2860.00
2017-11-19T11:49:54.132Z,2504.00
2017-11-19T11:50:54.125Z,2976.00
2017-11-19T11:51:54.135Z,3220.00
2017-11-19T11:52:56.024Z,2624.00
2017-11-19T11:53:54.114Z,2232.00
2017-11-19T11:54:54.129Z,1968.00
2017-11-19T11:55:54.105Z,1832.00
2017-11-19T11:56:54.102Z,1868.00
2017-11-19T11:57:54.101Z,1804.00
2017-11-19T11:58:54.103Z,1812.00
2017-11-19T11:59:54.103Z,2176.00
2017-11-19T12:00:56.073Z,2488.00
2017-11-19T12:01:54.077Z,2536.00
2017-11-19T12:02:54.072Z,2660.00
2017-11-19T12:03:54.436Z,2200.00
2017-11-19T12:04:54.119Z,2156.00
2017-11-19T12:05:54.072Z,2512.00
2017-11-19T12:06:54.054Z,2004.00
2017-11-19T12:07:54.046Z,1904.00
2017-11-19T12:08:54.994Z,2252.00
2017-11-19T12:09:54.069Z,2232.00
2017-11-19T12:10:54.322Z,2044.00
2017-11-19T12:11:54.031Z,2376.00
2017-11-19T12:12:54.031Z,2656.00
2017-11-19T12:13:54.046Z,2444.00
2017-11-19T12:14:54.014Z,2944.00
2017-11-19T12:15:54.008Z,2372.00
2017-11-19T12:16:54.002Z,2296.00
2017-11-19T12:17:54.004Z,1748.00
2017-11-19T12:18:55.918Z,1568.00
2017-11-19T12:19:53.989Z,1400.00
2017-11-19T12:20:53.997Z,1528.00
2017-11-19T12:21:53.983Z,2280.00
2017-11-19T12:22:54.016Z,2920.00
2017-11-19T12:23:53.970Z,2812.00
2017-11-19T12:24:54.157Z,2876.00
2017-11-19T12:25:53.965Z,2896.00
2017-11-19T12:26:54.042Z,2888.00
2017-11-19T12:27:53.957Z,1956.00
2017-11-19T12:28:54.551Z,1596.00
2017-11-19T12:29:53.973Z,1600.00
2017-11-19T12:30:53.935Z,1796.00
2017-11-19T12:31:53.930Z,1832.00
2017-11-19T12:32:54.227Z,1908.00
2017-11-19T12:33:54.658Z,2056.00
2017-11-19T12:34:55.542Z,2296.00
2017-11-19T12:35:54.546Z,2156.00
2017-11-19T12:36:54.268Z,2768.00
2017-11-19T12:37:53.912Z,2728.00
2017-11-19T12:38:53.897Z,2460.00
2017-11-19T12:39:53.890Z,2316.00
2017-11-19T12:40:55.533Z,2384.00
2017-11-19T12:41:53.893Z,2660.00
2017-11-19T12:42:53.907Z,3060.00
2017-11-19T12:43:53.883Z,2776.00
2017-11-19T12:44:53.981Z,2684.00
2017-11-19T12:45:53.876Z,2228.00
2017-11-19T12:46:57.132Z,2268.00
2017-11-19T12:47:53.871Z,2808.00
2017-11-19T12:48:54.520Z,2928.00
2017-11-19T12:49:55.547Z,2476.00
2017-11-19T12:50:53.866Z,2028.00
2017-11-19T12:51:54.510Z,1840.00
2017-11-19T12:52:53.834Z,1656.00
2017-11-19T12:53:54.091Z,1568.00
2017-11-19T12:54:53.854Z,1408.00
2017-11-19T12:55:53.829Z,1376.00